Time;durP1;ratioP1;P1;durP2;ratioP2;P2;SDS_P1;SDS_P2;PMS_P1;PMS_P2;Temp;Humidity;BMP_temperature;BMP_pressure;BME280_temperature;BME280_humidity;BME280_pressure;Samples;Min_cycle;Max_cycle;Signal;HPM_P1;HPM_P2
2023/04/02 00:09:49;;;;;;;38.00;24.90;;;;;;;7.04;90.12;97568.33;435377;1253;109386;-40
2023/04/02 00:19:55;;;;;;;36.50;22.40;;;;;;;6.85;90.52;97576.98;435338;1253;96619;-41
2023/04/02 00:30:03;;;;;;;39.70;21.70;;;;;;;6.82;90.55;97589.65;435487;1251;107588;-40
2023/04/02 00:40:19;;;;;;;35.80;21.90;;;;;;;6.84;90.57;97592.00;435719;1251;97899;-40
2023/04/02 01:10:59;;;;;;;31.10;22.00;;;;;;;6.80;90.72;97601.58;436622;1253;97893;-40
2023/04/02 01:31:44;;;;;;;25.70;19.60;;;;;;;6.62;90.75;97609.09;436335;1253;96629;-41
2023/04/02 01:41:58;;;;;;;29.00;18.60;;;;;;;6.50;90.90;97610.07;436462;1261;110994;-40
2023/04/02 01:52:06;;;;;;;28.20;18.30;;;;;;;6.48;90.90;97609.02;436617;1253;108637;-40
2023/04/02 02:02:11;;;;;;;27.10;16.80;;;;;;;6.32;90.95;97622.84;436481;1252;97903;-40
2023/04/02 02:12:18;;;;;;;27.90;17.50;;;;;;;6.24;91.09;97634.13;436345;1261;108547;-41
2023/04/02 02:22:24;;;;;;;24.50;16.70;;;;;;;6.10;91.25;97644.88;436369;1261;97861;-41
2023/04/02 02:32:35;;;;;;;20.90;13.60;;;;;;;5.92;91.51;97652.40;436480;1253;108901;-41
2023/04/02 02:42:47;;;;;;;17.50;13.10;;;;;;;5.82;91.51;97665.06;436527;1254;107620;-41
2023/04/02 02:52:57;;;;;;;18.70;13.00;;;;;;;5.72;91.62;97675.50;436380;1261;96606;-41
2023/04/02 03:03:07;;;;;;;15.20;10.90;;;;;;;5.62;91.59;97685.38;436320;1251;107527;-40
2023/04/02 03:13:20;;;;;;;13.70;10.00;;;;;;;5.51;91.53;97686.08;436480;1251;97881;-41
2023/04/02 03:23:33;;;;;;;12.50;8.10;;;;;;;5.38;91.82;97695.14;436356;1247;111568;-40
2023/04/02 03:33:41;;;;;;;11.40;8.00;;;;;;;5.22;91.78;97702.52;436335;1248;106142;-41
2023/04/02 03:43:53;;;;;;;11.30;8.30;;;;;;;5.11;91.97;97715.19;435957;1261;423920;-40
2023/04/02 03:54:01;;;;;;;9.60;7.60;;;;;;;5.03;91.93;97727.69;436386;1248;108425;-40
2023/04/02 04:04:14;;;;;;;9.10;7.70;;;;;;;4.98;91.99;97745.43;436521;1253;97915;-41
2023/04/02 04:14:30;;;;;;;8.50;5.80;;;;;;;5.00;91.88;97761.62;436479;1248;110507;-40
2023/04/02 04:44:50;;;;;;;4.70;3.80;;;;;;;4.69;91.95;97817.77;436421;1261;106470;-41
2023/04/02 04:54:57;;;;;;;3.00;2.80;;;;;;;4.52;92.08;97829.23;436365;1261;97962;-40
2023/04/02 05:05:04;;;;;;;3.70;2.70;;;;;;;4.36;92.23;97847.65;436459;1251;110295;-40
2023/04/02 05:15:15;;;;;;;3.10;2.80;;;;;;;4.20;92.32;97865.54;436395;1247;107654;-40
2023/04/02 05:25:20;;;;;;;6.50;4.70;;;;;;;4.10;92.20;97880.31;436463;1248;97899;-40
2023/04/02 05:45:41;;;;;;;2.10;1.50;;;;;;;3.95;92.05;97906.03;436502;1251;97906;-41
2023/04/02 05:55:49;;;;;;;2.50;1.80;;;;;;;3.80;91.90;97927.18;436621;1247;108845;-40
2023/04/02 06:05:54;;;;;;;2.00;1.70;;;;;;;3.44;91.70;97944.58;436515;1248;108273;-41
2023/04/02 06:16:02;;;;;;;1.70;1.40;;;;;;;2.98;91.56;97952.80;436613;1248;96706;-39
2023/04/02 06:26:07;;;;;;;4.20;3.00;;;;;;;2.69;91.19;97977.73;436470;1252;108777;-40
2023/04/02 06:36:15;;;;;;;2.70;2.30;;;;;;;2.47;90.91;97984.71;436551;1248;97870;-39
2023/04/02 06:46:23;;;;;;;5.30;4.40;;;;;;;2.42;91.17;97997.21;436588;1251;109795;-41
2023/04/02 06:56:32;;;;;;;14.90;8.90;;;;;;;2.41;91.08;98015.95;436517;1247;109032;-40
2023/04/02 07:06:40;;;;;;;7.50;5.90;;;;;;;2.23;90.70;98039.04;436637;1251;96632;-40
2023/04/02 07:16:47;;;;;;;9.60;7.80;;;;;;;2.22;90.97;98046.20;436586;1251;97877;-42
2023/04/02 07:26:55;;;;;;;6.60;5.20;;;;;;;2.61;91.58;98054.36;436562;1247;107600;-39
2023/04/02 07:47:09;;;;;;;4.20;3.10;;;;;;;3.45;91.83;98085.70;436489;1251;112718;-40
2023/04/02 07:57:16;;;;;;;3.90;2.30;;;;;;;3.47;91.66;98100.46;436401;1247;108583;-40
2023/04/02 08:07:23;;;;;;;9.00;5.20;;;;;;;3.48;91.68;98120.33;436509;1251;97897;-41
2023/04/02 08:27:37;;;;;;;10.10;7.40;;;;;;;3.45;91.98;98144.65;436340;1247;97884;-40
2023/04/02 08:37:44;;;;;;;10.60;9.10;;;;;;;3.35;92.25;98161.56;436536;1247;110779;-40
2023/04/02 08:47:54;;;;;;;11.00;7.80;;;;;;;3.34;92.64;98167.98;436500;1247;108005;-41
2023/04/02 08:58:00;;;;;;;12.70;8.40;;;;;;;3.40;92.66;98180.23;436454;1248;97947;-41
2023/04/02 09:08:16;;;;;;;11.80;7.10;;;;;;;3.57;92.63;98193.64;436445;1251;109435;-40
2023/04/02 09:18:22;;;;;;;7.00;6.10;;;;;;;3.75;92.50;98207.38;436377;1251;96650;-41
2023/04/02 09:28:30;;;;;;;18.10;12.80;;;;;;;3.82;92.63;98218.66;437039;1251;109900;-41
2023/04/02 09:38:37;;;;;;;7.00;5.20;;;;;;;4.12;92.81;98234.78;436979;1250;107416;-39
2023/04/02 09:48:52;;;;;;;9.70;6.90;;;;;;;4.28;92.61;98254.41;436790;1253;97486;-41
2023/04/02 09:59:03;;;;;;;8.40;6.40;;;;;;;4.21;92.52;98268.64;436527;1251;107187;-40
2023/04/02 10:09:19;;;;;;;13.70;7.90;;;;;;;4.18;92.51;98279.52;436427;1251;97874;-40
2023/04/02 10:19:26;;;;;;;8.70;6.40;;;;;;;4.04;92.38;98289.69;436522;1251;109831;-41
2023/04/02 10:29:44;;;;;;;6.80;5.70;;;;;;;3.93;92.57;98300.20;436293;1247;107624;-40
2023/04/02 10:50:08;;;;;;;7.00;5.00;;;;;;;4.07;92.27;98319.66;436524;1247;107848;-40
2023/04/02 11:00:18;;;;;;;6.90;5.80;;;;;;;4.09;92.16;98330.65;436465;1247;97870;-41
2023/04/02 11:10:30;;;;;;;5.10;4.60;;;;;;;4.03;91.98;98341.98;436446;1251;109307;-41
2023/04/02 11:21:05;;;;;;;9.60;5.70;;;;;;;4.26;92.06;98354.55;436415;1251;107886;-41
2023/04/02 11:31:20;;;;;;;7.20;5.80;;;;;;;4.25;91.81;98365.21;436303;1251;97868;-41
2023/04/02 11:42:03;;;;;;;11.60;7.90;;;;;;;4.12;91.46;98375.79;436471;1251;108379;-39
2023/04/02 11:52:22;;;;;;;8.40;7.10;;;;;;;3.94;91.46;98386.43;436452;1250;97881;-40
2023/04/02 12:02:30;;;;;;;10.80;7.40;;;;;;;3.98;91.68;98405.24;436436;1248;110531;-41
2023/04/02 12:12:39;;;;;;;12.70;8.10;;;;;;;3.87;91.40;98416.19;436404;1247;108706;-40
2023/04/02 12:32:56;;;;;;;9.30;7.10;;;;;;;3.75;91.09;98431.98;436475;1251;107570;-40
2023/04/02 12:43:03;;;;;;;11.10;7.90;;;;;;;3.81;91.22;98438.67;436499;1252;97886;-40
2023/04/02 13:03:26;;;;;;;6.20;5.10;;;;;;;3.91;90.76;98456.60;436382;1247;108297;-41
2023/04/02 13:13:35;;;;;;;9.70;6.20;;;;;;;3.92;90.62;98475.25;436456;1247;97874;-41
2023/04/02 13:23:44;;;;;;;5.70;4.90;;;;;;;3.87;90.22;98478.64;436513;1252;109149;-41
2023/04/02 13:33:52;;;;;;;10.10;6.70;;;;;;;4.10;90.20;98486.08;436597;1251;97554;-41
2023/04/02 13:44:00;;;;;;;7.40;4.90;;;;;;;4.10;89.88;98504.35;436532;1251;110283;-40
2023/04/02 13:54:06;;;;;;;6.50;4.30;;;;;;;4.14;89.02;98522.21;436459;1251;107079;-39
2023/04/02 14:04:17;;;;;;;5.90;3.80;;;;;;;4.39;88.89;98528.14;436551;1251;96609;-40
2023/04/02 14:14:46;;;;;;;4.10;2.90;;;;;;;4.48;88.44;98529.36;436467;1248;109199;-40
2023/04/02 14:24:52;;;;;;;10.30;6.20;;;;;;;4.10;88.38;98539.94;436452;1251;108600;-41
2023/04/02 14:34:57;;;;;;;5.80;4.50;;;;;;;3.92;88.19;98549.70;436524;1252;97867;-40
2023/04/02 14:45:06;;;;;;;7.90;5.50;;;;;;;3.98;88.21;98556.06;436588;1250;97926;-40
2023/04/02 14:55:12;;;;;;;5.70;4.80;;;;;;;3.83;87.87;98575.13;436477;1271;107859;-40
2023/04/02 15:05:35;;;;;;;8.50;4.90;;;;;;;3.69;87.76;98587.55;436458;1251;97883;-40
2023/04/02 15:15:44;;;;;;;7.50;4.40;;;;;;;3.49;87.79;98604.15;436400;1253;109461;-40
2023/04/02 15:25:58;;;;;;;9.10;7.30;;;;;;;3.37;87.75;98615.21;436572;1248;97949;-41
2023/04/02 15:36:09;;;;;;;6.50;5.70;;;;;;;3.26;87.71;98625.17;436604;1251;96577;-41
2023/04/02 15:46:17;;;;;;;7.00;4.70;;;;;;;3.27;87.83;98633.39;436325;1252;394649;-39
2023/04/02 15:56:26;;;;;;;10.40;6.50;;;;;;;3.23;87.72;98643.34;436369;1251;108266;-40
2023/04/02 16:06:35;;;;;;;10.30;7.00;;;;;;;3.23;87.95;98653.11;436519;1251;97986;-40
2023/04/02 16:16:42;;;;;;;;;;;;;;;3.14;87.94;98660.97;437453;1253;107849;-38
2023/04/02 16:26:57;;;;;;;10.60;6.80;;;;;;;3.06;88.09;98676.84;437394;1253;97470;-39
2023/04/02 16:37:08;;;;;;;13.30;8.20;;;;;;;2.97;88.15;98689.46;437651;1251;109939;-40
2023/04/02 16:47:36;;;;;;;12.50;7.20;;;;;;;2.86;88.38;98699.07;436591;1247;107702;-40
2023/04/02 16:57:41;;;;;;;14.90;9.80;;;;;;;2.82;88.52;98710.56;437707;1252;96622;-40
2023/04/02 17:07:46;;;;;;;9.70;7.40;;;;;;;2.84;88.50;98727.42;437224;1253;106401;-39
2023/04/02 17:17:53;;;;;;;10.70;7.20;;;;;;;2.84;88.71;98738.89;436869;1251;97874;-39
2023/04/02 17:28:01;;;;;;;19.40;10.40;;;;;;;2.83;88.72;98751.29;436970;1253;110307;-39
2023/04/02 17:38:07;;;;;;;9.70;7.10;;;;;;;2.87;88.76;98763.81;437925;1248;108120;-40
2023/04/02 17:48:18;;;;;;;12.30;8.40;;;;;;;2.80;88.76;98775.79;437959;1251;97869;-39
2023/04/02 18:08:41;;;;;;;16.10;9.50;;;;;;;2.66;88.99;98806.14;438314;1253;97267;-40
2023/04/02 18:19:07;;;;;;;10.70;7.00;;;;;;;2.59;89.18;98812.58;437343;1253;111666;-40
2023/04/02 18:29:15;;;;;;;10.50;8.10;;;;;;;2.52;89.43;98824.02;436594;1250;107358;-39
2023/04/02 18:39:28;;;;;;;13.90;8.60;;;;;;;2.41;89.53;98839.27;437062;1253;97874;-40
2023/04/02 18:49:38;;;;;;;11.80;7.20;;;;;;;2.42;89.70;98846.86;436612;1253;107849;-40
2023/04/02 18:59:44;;;;;;;11.60;7.10;;;;;;;2.37;89.71;98858.86;436501;1250;97874;-40
2023/04/02 19:09:56;;;;;;;8.20;6.00;;;;;;;2.36;89.90;98862.44;436690;1253;109007;-39
2023/04/02 19:20:01;;;;;;;12.30;6.60;;;;;;;2.32;89.92;98878.45;437300;1251;107201;-40
2023/04/02 19:30:12;;;;;;;11.90;8.40;;;;;;;2.31;90.10;98896.73;436617;1253;97854;-40
2023/04/02 19:50:31;;;;;;;6.20;5.20;;;;;;;2.25;90.15;98915.20;436362;1248;97984;-41
2023/04/02 20:00:38;;;;;;;6.20;4.30;;;;;;;2.06;90.08;98926.89;436728;1253;110622;-40
2023/04/02 20:10:45;;;;;;;8.80;5.40;;;;;;;1.83;90.00;98945.00;436392;1251;108090;-40
2023/04/02 20:20:52;;;;;;;37.70;13.50;;;;;;;1.61;89.94;98955.06;436507;1253;97848;-39
2023/04/02 20:31:05;;;;;;;14.50;9.10;;;;;;;1.46;90.03;98959.05;436495;1253;109697;-39
2023/04/02 20:41:14;;;;;;;13.40;8.60;;;;;;;1.35;89.97;98971.91;436650;1261;96622;-40
2023/04/02 20:51:21;;;;;;;13.60;8.80;;;;;;;1.17;90.20;98982.15;436528;1252;111942;-39
2023/04/02 21:01:30;;;;;;;13.70;8.00;;;;;;;1.04;90.29;98982.14;436227;1253;107304;-40
2023/04/02 21:11:36;;;;;;;13.40;8.60;;;;;;;0.99;90.34;98988.39;436339;1261;97790;-40
2023/04/02 21:21:44;;;;;;;10.40;5.80;;;;;;;0.98;90.43;98996.84;436376;1253;108395;-41
2023/04/02 21:31:51;;;;;;;8.60;5.30;;;;;;;0.97;90.56;99002.31;436562;1254;96634;-40
2023/04/02 21:41:58;;;;;;;7.70;6.20;;;;;;;0.94;90.74;99006.59;436568;1254;109488;-40
2023/04/02 21:52:05;;;;;;;15.30;8.60;;;;;;;0.98;90.79;99009.86;436319;1253;108414;-40
2023/04/02 22:02:12;;;;;;;11.80;7.20;;;;;;;1.04;90.92;99021.07;436490;1253;97742;-39
2023/04/02 22:12:20;;;;;;;9.80;6.90;;;;;;;1.05;90.97;99030.60;436392;1261;107470;-40
2023/04/02 22:22:26;;;;;;;11.20;6.20;;;;;;;1.05;91.00;99042.59;436326;1257;97859;-41
2023/04/02 22:32:32;;;;;;;13.60;8.80;;;;;;;1.07;90.79;99054.38;436504;1253;109389;-43
2023/04/02 22:42:39;;;;;;;10.60;8.60;;;;;;;1.07;90.70;99057.24;437309;1253;109300;-39
2023/04/02 22:52:47;;;;;;;12.30;8.20;;;;;;;1.04;90.78;99058.86;437451;1260;97588;-40
2023/04/02 23:02:54;;;;;;;10.30;8.10;;;;;;;1.00;90.84;99060.73;437463;1248;107796;-40
2023/04/02 23:13:01;;;;;;;14.70;9.00;;;;;;;1.00;91.05;99059.70;437397;1253;97460;-40
2023/04/02 23:33:14;;;;;;;15.50;10.30;;;;;;;0.98;91.21;99066.66;437412;1248;108364;-41
2023/04/02 23:43:22;;;;;;;18.60;11.90;;;;;;;0.98;91.21;99070.77;437469;1253;97867;-39
2023/04/02 23:53:30;;;;;;;13.80;9.30;;;;;;;1.02;91.23;99071.72;437502;1250;108750;-40
